Time;durP1;ratioP1;P1;durP2;ratioP2;P2;SDS_P1;SDS_P2;PMS_P1;PMS_P2;Temp;Humidity;BMP_temperature;BMP_pressure;BME280_temperature;BME280_humidity;BME280_pressure;Samples;Min_cycle;Max_cycle;Signal;HPM_P1;HPM_P2
2024/03/24 00:02:14;;;;;;;10.88;2.70;;;;;;;-146.27;85.25;44919.56;5089750;28;20035;-72
2024/03/24 00:04:40;;;;;;;21.30;3.20;;;;;;;-146.27;86.45;44919.56;5085156;28;20380;-72
2024/03/24 00:07:05;;;;;;;11.35;2.78;;;;;;;-146.27;86.05;44849.91;5096984;28;20039;-72
2024/03/24 00:09:31;;;;;;;11.02;3.47;;;;;;;-146.27;85.91;44865.84;5089239;28;20044;-72
2024/03/24 00:11:57;;;;;;;15.35;3.58;;;;;;;-146.27;85.69;44841.94;5093982;28;20023;-72
2024/03/24 00:14:22;;;;;;;16.95;3.85;;;;;;;-146.27;85.88;44808.13;5093454;28;20106;-71
2024/03/24 00:16:48;;;;;;;12.13;3.38;;;;;;;-146.27;85.52;44788.22;5094125;28;20108;-73
2024/03/24 00:19:13;;;;;;;11.30;2.88;;;;;;;-146.27;84.56;44800.16;5096066;28;20024;-71
2024/03/24 00:21:45;;;;;;;16.00;3.42;;;;;;;-146.27;84.91;44830.00;5093001;28;20016;-72
2024/03/24 00:24:10;;;;;;;10.73;2.97;;;;;;;-146.27;83.77;44845.94;5080488;28;20040;-72
2024/03/24 00:26:37;;;;;;;15.60;3.33;;;;;;;-146.27;82.38;44832.00;5089470;28;20131;-73
2024/03/24 00:29:02;;;;;;;17.83;4.18;;;;;;;-146.27;81.77;44883.75;5094336;28;20028;-73
2024/03/24 00:31:27;;;;;;;18.10;3.45;;;;;;;-146.27;81.30;44933.50;5093664;28;20031;-72
2024/03/24 00:33:53;;;;;;;15.07;3.42;;;;;;;-146.27;80.57;44818.06;5103041;28;20098;-72
2024/03/24 00:36:18;;;;;;;10.30;2.92;;;;;;;-146.27;79.90;44907.63;5107371;28;20042;-70
2024/03/24 00:38:44;;;;;;;9.55;2.40;;;;;;;-146.27;79.96;44983.25;5094526;27;20016;-72
2024/03/24 00:41:10;;;;;;;15.40;3.03;;;;;;;-146.27;80.28;44955.38;5094285;28;20047;-72
2024/03/24 00:43:35;;;;;;;19.15;2.83;;;;;;;-146.27;80.19;44945.44;5091907;28;20514;-72
2024/03/24 00:46:02;;;;;;;10.45;2.53;;;;;;;-146.27;79.49;44895.69;5093694;28;20020;-72
2024/03/24 00:48:27;;;;;;;13.68;3.55;;;;;;;-146.27;79.14;44919.56;5090856;28;20103;-72
2024/03/24 00:50:52;;;;;;;11.07;2.60;;;;;;;-146.27;78.93;44875.78;5082520;28;20598;-72
2024/03/24 00:53:18;;;;;;;13.18;2.85;;;;;;;-146.27;78.69;44891.69;5083194;28;20126;-72
2024/03/24 00:55:43;;;;;;;16.60;3.78;;;;;;;-146.27;78.98;44929.50;5084460;28;20027;-72
2024/03/24 00:58:09;;;;;;;10.52;2.55;;;;;;;-146.27;79.80;44939.47;5093583;28;20541;-72
2024/03/24 01:00:35;;;;;;;19.23;3.55;;;;;;;-146.27;81.51;44873.78;5084826;28;20036;-71
2024/03/24 01:03:00;;;;;;;15.18;3.20;;;;;;;-146.27;81.83;44828.03;5088390;28;20025;-71
2024/03/24 01:05:25;;;;;;;18.63;3.80;;;;;;;-146.27;81.90;44802.16;5088637;28;20023;-70
2024/03/24 01:07:51;;;;;;;24.65;5.28;;;;;;;-146.27;81.91;44841.94;5108061;28;20166;-72
2024/03/24 01:10:17;;;;;;;16.80;4.25;;;;;;;-146.27;82.37;44784.25;5107237;27;20031;-73
2024/03/24 01:12:52;;;;;;;18.42;3.40;;;;;;;-146.27;82.66;44830.00;5093673;28;20170;-72
2024/03/24 01:15:17;;;;;;;16.17;2.78;;;;;;;-146.27;82.22;44845.94;5090595;28;20032;-72
2024/03/24 01:17:45;;;;;;;12.18;3.33;;;;;;;-146.27;81.50;44889.72;5098464;28;20060;-72
2024/03/24 01:20:11;;;;;;;11.65;3.25;;;;;;;-146.27;81.05;44871.81;5091721;28;20468;-72
2024/03/24 01:22:38;;;;;;;14.15;3.20;;;;;;;-146.27;82.68;44901.66;5084050;28;20028;-71
2024/03/24 01:25:05;;;;;;;13.98;3.78;;;;;;;-146.27;82.88;44847.91;5086165;28;20020;-72
2024/03/24 01:27:30;;;;;;;18.90;2.85;;;;;;;-146.27;85.35;44828.03;5095288;28;20027;-73
2024/03/24 01:29:55;;;;;;;17.98;3.20;;;;;;;-146.27;86.48;44784.25;5083126;28;20068;-70
2024/03/24 01:32:22;;;;;;;14.85;3.33;;;;;;;-146.27;88.17;44780.25;5087643;28;20049;-71
2024/03/24 01:34:47;;;;;;;9.02;2.88;;;;;;;-146.27;88.78;44700.66;5087887;28;20038;-71
2024/03/24 01:37:13;;;;;;;14.75;2.92;;;;;;;-146.27;88.86;44638.97;5092299;28;20032;-72
2024/03/24 01:39:51;;;;;;;14.25;3.13;;;;;;;-146.27;90.06;44565.38;5089995;28;20472;-70
2024/03/24 01:42:16;;;;;;;17.45;3.65;;;;;;;-146.27;90.04;44453.94;5109971;28;20110;-72
2024/03/24 01:44:43;;;;;;;22.33;3.75;;;;;;;-146.27;89.70;44394.25;5097669;28;20516;-72
2024/03/24 01:47:11;;;;;;;13.65;3.15;;;;;;;-146.27;89.28;44438.00;5091868;28;20028;-71
2024/03/24 01:49:38;;;;;;;19.15;3.40;;;;;;;-146.27;89.91;44426.06;5102006;28;20084;-72
2024/03/24 01:52:07;;;;;;;10.52;3.55;;;;;;;-146.27;89.35;44390.25;5094111;28;20080;-72
2024/03/24 01:54:34;;;;;;;14.15;3.30;;;;;;;-146.27;90.36;44330.56;5101743;28;20036;-71
2024/03/24 01:57:00;;;;;;;13.50;3.42;;;;;;;-146.27;90.36;44348.47;5096167;28;20028;-72
2024/03/24 01:59:25;;;;;;;17.40;3.67;;;;;;;-146.27;90.84;44328.59;5087477;28;20542;-72
2024/03/24 02:01:51;;;;;;;15.27;3.65;;;;;;;-146.27;90.60;44235.06;5072618;28;20078;-74
2024/03/24 02:04:16;;;;;;;13.18;3.83;;;;;;;-146.27;89.96;44284.81;5080475;28;20488;-73
2024/03/24 02:06:41;;;;;;;21.20;4.43;;;;;;;-146.27;89.04;44310.69;5078014;28;20503;-72
2024/03/24 02:09:07;;;;;;;16.17;3.42;;;;;;;-146.27;88.24;44334.56;5088439;28;20035;-73
2024/03/24 02:11:32;;;;;;;11.40;3.58;;;;;;;-146.27;88.10;44350.47;5085063;28;20578;-73
2024/03/24 02:13:58;;;;;;;11.80;3.80;;;;;;;-146.27;88.62;44380.31;5112411;28;20099;-73
2024/03/24 02:16:24;;;;;;;18.63;3.53;;;;;;;-146.27;89.12;44362.41;5104582;28;20038;-73
2024/03/24 02:18:49;;;;;;;11.15;4.38;;;;;;;-146.27;89.18;44354.44;5107455;28;20019;-72
2024/03/24 02:21:15;;;;;;;16.33;4.38;;;;;;;-146.27;89.13;44318.63;5085915;28;20111;-73
2024/03/24 02:23:40;;;;;;;19.50;4.35;;;;;;;-146.27;89.57;44316.66;5088127;28;20054;-73
2024/03/24 02:26:06;;;;;;;13.32;4.25;;;;;;;-146.27;89.19;44292.78;5104324;28;20658;-73
2024/03/24 02:28:31;;;;;;;16.83;4.10;;;;;;;-146.27;88.75;44304.72;5088938;28;20553;-73
2024/03/24 02:30:56;;;;;;;19.13;4.25;;;;;;;-146.27;88.83;44322.63;5085816;28;20474;-72
2024/03/24 02:33:22;;;;;;;16.77;4.60;;;;;;;-146.27;88.32;44286.78;5089143;28;20141;-73
2024/03/24 02:35:49;;;;;;;12.95;3.70;;;;;;;-146.27;88.57;44282.81;5079809;28;20063;-72
2024/03/24 02:38:15;;;;;;;23.58;5.10;;;;;;;-146.27;88.38;44270.88;5103830;28;20425;-72
2024/03/24 02:40:40;;;;;;;23.10;4.78;;;;;;;-146.27;87.70;44278.84;5090279;28;20020;-73
2024/03/24 02:43:06;;;;;;;16.10;4.18;;;;;;;-146.27;86.62;44272.88;5089885;28;20032;-71
2024/03/24 02:45:31;;;;;;;28.55;5.78;;;;;;;-146.27;86.44;44298.75;5078363;28;20043;-72
2024/03/24 02:47:57;;;;;;;19.30;3.85;;;;;;;-146.27;85.61;44286.78;5080613;28;20047;-73
2024/03/24 02:50:22;;;;;;;20.20;4.60;;;;;;;-146.27;85.72;44334.56;5088912;28;20051;-73
2024/03/24 02:52:48;;;;;;;21.25;4.03;;;;;;;-146.27;84.99;44348.47;5082635;28;20030;-73
2024/03/24 02:55:13;;;;;;;19.48;4.85;;;;;;;-146.27;84.14;44324.59;5097366;28;20039;-72
2024/03/24 02:57:39;;;;;;;12.98;4.03;;;;;;;-146.27;83.83;44404.19;5089527;27;20493;-72
2024/03/24 03:00:08;;;;;;;16.08;3.65;;;;;;;-146.27;83.71;44434.03;5084453;28;20073;-73
2024/03/24 03:02:34;;;;;;;19.45;4.60;;;;;;;-146.27;83.25;44440.00;5104032;28;20039;-73
2024/03/24 03:05:00;;;;;;;17.15;3.83;;;;;;;-146.27;83.05;44451.94;5074349;28;20025;-73
2024/03/24 03:07:26;;;;;;;12.10;3.30;;;;;;;-146.27;82.83;44477.81;5101668;28;20180;-72
2024/03/24 03:09:54;;;;;;;22.08;4.78;;;;;;;-146.27;82.47;44507.66;5083151;28;20499;-72
2024/03/24 03:12:19;;;;;;;9.98;3.50;;;;;;;-146.27;82.60;44527.56;5095085;28;20030;-71
2024/03/24 03:14:45;;;;;;;11.38;2.47;;;;;;;-146.27;81.13;44509.66;5092047;28;20098;-73
2024/03/24 03:17:10;;;;;;;7.72;1.60;;;;;;;-146.27;80.78;44487.75;5092184;28;20024;-73
2024/03/24 03:19:36;;;;;;;8.48;1.55;;;;;;;-146.27;81.77;44555.41;5100407;28;20468;-74
2024/03/24 03:22:03;;;;;;;4.63;0.98;;;;;;;-146.27;81.03;44545.47;5086050;28;20439;-74
2024/03/24 03:24:28;;;;;;;8.35;1.30;;;;;;;-146.27;81.22;44565.38;5090979;28;20097;-75
2024/03/24 03:26:54;;;;;;;6.32;1.52;;;;;;;-146.27;81.63;44629.03;5073890;28;20072;-73
2024/03/24 03:29:19;;;;;;;12.07;1.67;;;;;;;-146.27;81.46;44690.72;5089733;28;20495;-73
2024/03/24 03:31:45;;;;;;;8.15;1.10;;;;;;;-146.27;81.49;44692.72;5079273;28;20020;-72
2024/03/24 03:34:10;;;;;;;4.88;1.35;;;;;;;-146.27;81.57;44700.66;5108196;28;20055;-72
2024/03/24 03:36:35;;;;;;;11.02;1.17;;;;;;;-146.27;81.89;44716.59;5086721;28;20525;-74
2024/03/24 03:39:04;;;;;;;7.00;1.00;;;;;;;-146.27;82.29;44740.47;5093717;28;20039;-72
2024/03/24 03:41:30;;;;;;;4.88;1.02;;;;;;;-146.27;82.71;44712.59;5094009;28;20390;-73
2024/03/24 03:43:55;;;;;;;6.00;1.42;;;;;;;-146.27;82.88;44698.69;5102195;28;20023;-72
2024/03/24 03:46:21;;;;;;;2.22;1.05;;;;;;;-146.27;83.65;44652.91;5069506;28;20107;-73
2024/03/24 03:48:48;;;;;;;11.10;1.50;;;;;;;-146.27;83.77;44688.72;5091532;28;20026;-73
2024/03/24 03:51:19;;;;;;;4.82;1.90;;;;;;;-146.27;84.75;44724.56;5087068;28;20024;-72
2024/03/24 03:53:44;;;;;;;6.90;1.27;;;;;;;-146.27;84.29;44682.75;5083721;28;20093;-72
2024/03/24 03:56:10;;;;;;;7.38;1.33;;;;;;;-146.27;84.77;44648.94;5089921;28;20027;-73
2024/03/24 03:58:35;;;;;;;4.30;1.27;;;;;;;-146.27;85.08;44660.88;5096666;28;20020;-73
2024/03/24 04:01:01;;;;;;;5.20;1.15;;;;;;;-146.27;85.38;44617.09;5083444;28;20067;-73
2024/03/24 04:03:26;;;;;;;5.50;1.20;;;;;;;-146.27;85.91;44629.03;5096839;28;20044;-73
2024/03/24 04:05:54;;;;;;;5.78;1.27;;;;;;;-146.27;86.08;44565.38;5079019;28;20051;-73
2024/03/24 04:08:19;;;;;;;8.02;1.42;;;;;;;-146.27;86.67;44573.31;5088804;28;20031;-74
2024/03/24 04:10:45;;;;;;;7.25;1.65;;;;;;;-146.27;87.20;44589.25;5087126;28;20388;-73
2024/03/24 04:13:10;;;;;;;2.65;1.38;;;;;;;-146.27;87.36;44581.28;5091072;28;20492;-73
2024/03/24 04:15:40;;;;;;;7.43;1.65;;;;;;;-146.27;88.31;44615.09;5087981;28;20035;-74
2024/03/24 04:18:05;;;;;;;12.20;1.65;;;;;;;-146.27;87.51;44587.25;5084379;28;20388;-74
2024/03/24 04:20:32;;;;;;;8.52;1.52;;;;;;;-146.27;86.72;44611.13;5086670;28;20028;-70
2024/03/24 04:22:58;;;;;;;12.40;1.50;;;;;;;-146.27;86.94;44644.94;5086657;28;20016;-71
2024/03/24 04:25:24;;;;;;;5.68;1.30;;;;;;;-146.27;86.77;44629.03;5093832;28;20392;-70
2024/03/24 04:27:49;;;;;;;6.32;2.13;;;;;;;-146.27;87.19;44638.97;5110286;28;20035;-72
2024/03/24 04:30:15;;;;;;;8.98;1.80;;;;;;;-146.27;87.34;44613.13;5084610;28;20028;-71
2024/03/24 04:32:41;;;;;;;5.55;1.65;;;;;;;-146.27;87.17;44640.97;5090430;28;20035;-71
2024/03/24 04:35:10;;;;;;;6.50;1.60;;;;;;;-146.27;87.62;44656.91;5088780;28;20397;-71
2024/03/24 04:37:35;;;;;;;4.18;1.80;;;;;;;-146.27;87.36;44664.84;5090212;28;20024;-70
2024/03/24 04:40:05;;;;;;;5.63;1.48;;;;;;;-146.27;87.43;44629.03;5090963;28;20092;-70
2024/03/24 04:42:32;;;;;;;4.60;1.63;;;;;;;-146.27;87.59;44637.00;5090049;28;20021;-72
2024/03/24 04:44:57;;;;;;;4.68;1.48;;;;;;;-146.27;87.18;44619.09;5089861;28;20107;-71
2024/03/24 04:47:22;;;;;;;4.75;1.73;;;;;;;-146.27;87.36;44609.13;5090747;28;20548;-71
2024/03/24 04:49:48;;;;;;;14.20;2.40;;;;;;;-146.27;87.05;44581.28;5078911;28;20032;-71
2024/03/24 04:52:13;;;;;;;3.08;1.40;;;;;;;-146.27;87.23;44609.13;5077029;28;20368;-72
2024/03/24 04:54:38;;;;;;;8.40;1.52;;;;;;;-146.27;87.39;44577.31;5076708;28;20021;-71
2024/03/24 04:57:04;;;;;;;4.07;1.95;;;;;;;-146.27;87.35;44569.34;5083551;28;20020;-70
2024/03/24 04:59:29;;;;;;;7.55;1.83;;;;;;;-146.27;88.46;44541.47;5089953;28;20059;-71
2024/03/24 05:01:55;;;;;;;9.90;2.10;;;;;;;-146.27;88.36;44545.47;5086266;28;20081;-71
2024/03/24 05:04:20;;;;;;;11.50;2.67;;;;;;;-146.27;88.97;44469.84;5094046;28;20051;-71
2024/03/24 05:06:46;;;;;;;13.30;2.88;;;;;;;-146.27;90.16;44449.97;5087607;28;20476;-71
2024/03/24 05:09:11;;;;;;;14.13;4.20;;;;;;;-146.27;90.12;44362.41;5089019;28;20446;-71
2024/03/24 05:11:36;;;;;;;24.17;5.45;;;;;;;-146.27;90.21;44368.38;5077643;28;20496;-71
2024/03/24 05:14:03;;;;;;;13.35;4.07;;;;;;;-146.27;89.48;44358.44;5091983;28;20492;-72
2024/03/24 05:16:32;;;;;;;17.83;4.72;;;;;;;-146.27;88.29;44362.41;5095193;28;20028;-71
2024/03/24 05:19:03;;;;;;;15.02;4.20;;;;;;;-146.27;87.29;44354.44;5087667;28;20027;-71
2024/03/24 05:21:28;;;;;;;17.75;3.70;;;;;;;-146.27;86.81;44400.22;5091091;28;20043;-71
2024/03/24 05:23:54;;;;;;;18.23;3.97;;;;;;;-146.27;86.43;44396.22;5094063;28;20028;-72
2024/03/24 05:26:19;;;;;;;23.40;4.40;;;;;;;-146.27;86.46;44398.22;5100352;28;20527;-71
2024/03/24 05:28:45;;;;;;;21.27;4.75;;;;;;;-146.27;86.12;44451.94;5090887;28;20031;-70
2024/03/24 05:31:10;;;;;;;18.88;4.90;;;;;;;-146.27;85.35;44442.00;5080302;28;20531;-71
2024/03/24 05:33:35;;;;;;;15.45;4.15;;;;;;;-146.27;84.86;44447.97;5092908;28;20031;-72
2024/03/24 05:36:03;;;;;;;17.55;3.67;;;;;;;-146.27;84.73;44513.63;5103514;28;20027;-72
2024/03/24 05:38:31;;;;;;;15.98;4.30;;;;;;;-146.27;84.04;44499.69;5097732;28;20035;-72
2024/03/24 05:41:03;;;;;;;16.10;3.65;;;;;;;-146.27;83.77;44557.41;5085708;28;20032;-70
2024/03/24 05:43:30;;;;;;;13.35;4.05;;;;;;;-146.27;83.29;44537.50;5090967;28;20043;-70
2024/03/24 05:45:56;;;;;;;14.95;4.40;;;;;;;-146.27;83.14;44561.38;5103888;28;20106;-71
2024/03/24 05:48:23;;;;;;;17.55;3.75;;;;;;;-146.27;82.45;44597.19;5086064;27;20162;-71
2024/03/24 05:51:05;;;;;;;16.70;4.50;;;;;;;-146.27;82.23;44619.09;5097444;28;20026;-69
2024/03/24 05:53:32;;;;;;;19.80;4.32;;;;;;;-146.27;81.91;44652.91;5081988;28;20043;-70
2024/03/24 05:56:01;;;;;;;12.38;3.20;;;;;;;-146.27;82.20;44696.69;5078131;28;20054;-69
2024/03/24 05:58:27;;;;;;;11.02;3.92;;;;;;;-146.27;81.89;44724.56;5088512;28;20483;-70
2024/03/24 06:00:52;;;;;;;13.60;4.32;;;;;;;-146.27;81.84;44680.78;5098819;28;20035;-69
2024/03/24 06:03:18;;;;;;;15.80;3.95;;;;;;;-146.27;82.33;44740.47;5089941;28;20032;-69
2024/03/24 06:05:43;;;;;;;13.05;3.47;;;;;;;-146.27;82.18;44654.91;5092686;28;20089;-71
2024/03/24 06:08:09;;;;;;;14.55;3.70;;;;;;;-146.27;81.38;44738.47;5090350;28;20361;-70
2024/03/24 06:10:37;;;;;;;13.48;3.30;;;;;;;-146.27;80.89;44746.44;5091850;28;20055;-71
2024/03/24 06:13:03;;;;;;;8.68;3.22;;;;;;;-146.27;81.04;44808.13;5087288;28;20033;-72
2024/03/24 06:15:29;;;;;;;19.70;3.60;;;;;;;-146.27;80.40;44820.06;5089599;28;20035;-70
2024/03/24 06:17:54;;;;;;;18.38;3.67;;;;;;;-146.27;80.51;44800.16;5084309;28;20074;-70
2024/03/24 06:20:20;;;;;;;8.02;3.30;;;;;;;-146.27;80.12;44893.69;5076987;28;20493;-70
2024/03/24 06:22:45;;;;;;;9.27;3.10;;;;;;;-146.27;80.09;44891.69;5092235;28;20032;-70
2024/03/24 06:25:10;;;;;;;14.70;3.28;;;;;;;-146.27;80.34;44927.53;5091186;28;20032;-70
2024/03/24 06:27:36;;;;;;;11.43;3.45;;;;;;;-146.27;80.49;44959.38;5090773;28;20023;-71
2024/03/24 06:30:02;;;;;;;23.80;3.33;;;;;;;-146.27;80.26;44971.31;5090455;28;20028;-70
2024/03/24 06:32:27;;;;;;;17.63;3.53;;;;;;;-146.27;79.80;44943.44;5090363;28;20024;-70
2024/03/24 06:34:53;;;;;;;14.57;2.63;;;;;;;-146.27;79.22;45003.16;5083539;28;20115;-70
2024/03/24 06:37:18;;;;;;;15.55;3.17;;;;;;;-146.27;79.20;45104.63;5092213;28;20039;-69
2024/03/24 06:39:43;;;;;;;12.95;3.25;;;;;;;-146.27;78.53;45116.56;5091046;28;20092;-71
2024/03/24 06:42:09;;;;;;;18.33;3.42;;;;;;;-146.27;78.41;45152.41;5080377;27;20028;-73
2024/03/24 06:44:37;;;;;;;15.35;3.35;;;;;;;-146.27;78.50;45190.22;5090934;28;20383;-74
2024/03/24 06:47:03;;;;;;;24.17;3.58;;;;;;;-146.27;77.94;45166.31;5090464;28;20074;-74
2024/03/24 06:49:29;;;;;;;20.50;3.63;;;;;;;-146.27;77.71;45257.88;5087799;28;20443;-74
2024/03/24 06:51:55;;;;;;;15.63;3.20;;;;;;;-146.27;77.43;45255.88;5087072;28;20044;-74
2024/03/24 06:54:20;;;;;;;22.80;3.15;;;;;;;-146.27;77.92;45212.09;5089421;28;20821;-73
2024/03/24 06:56:45;;;;;;;20.27;3.97;;;;;;;-146.27;77.66;45337.47;5090672;28;20070;-72
2024/03/24 06:59:11;;;;;;;13.98;3.08;;;;;;;-146.27;77.18;45353.41;5085074;28;20031;-73
2024/03/24 07:01:37;;;;;;;15.90;3.38;;;;;;;-146.27;77.04;45397.19;5088930;28;20487;-73
2024/03/24 07:04:03;;;;;;;13.98;2.70;;;;;;;-146.27;76.22;45343.44;5091009;28;20472;-71
2024/03/24 07:06:28;;;;;;;21.45;3.60;;;;;;;-146.27;77.09;45415.09;5075250;28;20035;-72
2024/03/24 07:08:54;;;;;;;17.83;3.90;;;;;;;-146.27;77.43;45405.16;5085441;28;20034;-70
2024/03/24 07:11:19;;;;;;;18.75;2.67;;;;;;;-146.27;76.68;45401.16;5089728;28;20492;-72
2024/03/24 07:13:44;;;;;;;15.15;3.40;;;;;;;-146.27;76.00;45421.06;5091109;28;20024;-72
2024/03/24 07:16:10;;;;;;;14.43;2.72;;;;;;;-146.27;76.32;45421.06;5084927;28;20471;-72
2024/03/24 07:18:35;;;;;;;12.95;3.28;;;;;;;-146.27;76.56;45440.97;5088389;28;20024;-73
2024/03/24 07:21:06;;;;;;;8.45;2.38;;;;;;;-146.27;76.61;45514.63;5090388;28;20032;-72
2024/03/24 07:23:31;;;;;;;23.38;3.45;;;;;;;-146.27;76.46;45431.03;5079926;28;20495;-73
2024/03/24 07:25:57;;;;;;;25.02;4.78;;;;;;;-146.27;76.14;45421.06;5089302;28;20044;-73
2024/03/24 07:28:22;;;;;;;12.48;2.53;;;;;;;-146.27;74.92;45440.97;5080751;28;20039;-72
2024/03/24 07:30:48;;;;;;;7.18;2.20;;;;;;;-146.27;73.97;45496.69;5089085;28;20502;-73
2024/03/24 07:33:16;;;;;;;15.13;3.05;;;;;;;-146.27;74.11;45464.84;5091939;28;20103;-73
2024/03/24 07:35:42;;;;;;;8.85;2.72;;;;;;;-146.27;74.57;45488.75;5091213;28;20035;-72
2024/03/24 07:38:08;;;;;;;8.80;2.42;;;;;;;-146.27;74.89;45437.00;5090894;28;20480;-72
2024/03/24 07:40:33;;;;;;;9.65;2.78;;;;;;;-146.27;75.65;45438.97;5089178;28;20501;-70
2024/03/24 07:42:59;;;;;;;10.98;2.53;;;;;;;-146.27;76.52;45490.72;5088555;28;20109;-71
2024/03/24 07:45:24;;;;;;;18.05;3.38;;;;;;;-146.27;77.23;45472.81;5087383;28;20020;-72
2024/03/24 07:47:51;;;;;;;13.45;2.55;;;;;;;-146.27;76.71;45405.16;5089792;28;20762;-70
2024/03/24 07:50:16;;;;;;;19.90;4.00;;;;;;;-146.27;76.41;45415.09;5088690;28;20048;-71
2024/03/24 07:52:42;;;;;;;17.15;2.85;;;;;;;-146.27;76.11;45444.94;5090242;28;20020;-70
2024/03/24 07:55:07;;;;;;;13.90;2.97;;;;;;;-146.27;76.11;45484.75;5089934;28;20438;-71
2024/03/24 07:57:33;;;;;;;7.78;2.80;;;;;;;-146.27;75.67;45556.41;5086800;28;20059;-71
2024/03/24 07:59:59;;;;;;;22.33;3.72;;;;;;;-146.27;75.40;45488.75;5088403;28;20024;-70
2024/03/24 08:02:26;;;;;;;15.20;2.38;;;;;;;-146.27;75.33;45468.84;5084741;28;20143;-70
2024/03/24 08:04:51;;;;;;;13.30;2.45;;;;;;;-146.27;74.50;45456.91;5083683;28;20023;-71
2024/03/24 08:07:17;;;;;;;9.65;2.40;;;;;;;-146.27;74.80;45464.84;5081149;28;20032;-71
2024/03/24 08:09:42;;;;;;;13.45;2.35;;;;;;;-146.27;75.10;45472.81;5075891;28;20480;-71
2024/03/24 08:12:07;;;;;;;10.77;2.72;;;;;;;-146.27;75.32;45496.69;5084252;28;20025;-72
2024/03/24 08:14:33;;;;;;;9.23;2.35;;;;;;;-146.27;75.18;45464.84;5087503;28;20039;-71
2024/03/24 08:16:58;;;;;;;18.48;2.90;;;;;;;-146.27;75.26;45466.84;5087326;28;20028;-70
2024/03/24 08:19:24;;;;;;;12.25;3.15;;;;;;;-146.27;74.78;45552.44;5088861;28;20024;-71
2024/03/24 08:21:50;;;;;;;13.82;2.67;;;;;;;-146.27;74.65;45506.66;5110565;28;20028;-70
2024/03/24 08:24:17;;;;;;;15.60;2.40;;;;;;;-146.27;74.81;45508.63;5088792;28;20028;-71
2024/03/24 08:26:42;;;;;;;16.80;3.15;;;;;;;-146.27;75.06;45486.75;5078710;28;20072;-72
2024/03/24 08:29:08;;;;;;;17.02;2.10;;;;;;;-146.27;73.73;45458.88;5072979;28;20054;-70
2024/03/24 08:31:33;;;;;;;12.30;2.90;;;;;;;-146.27;73.55;45544.47;5086000;28;20076;-70
2024/03/24 08:33:58;;;;;;;14.57;2.88;;;;;;;-146.27;74.09;45572.34;5099321;27;20024;-69
2024/03/24 08:36:24;;;;;;;18.35;3.10;;;;;;;-146.27;74.01;45528.53;5096489;28;20051;-71
2024/03/24 08:38:49;;;;;;;11.82;2.92;;;;;;;-146.27;73.22;45540.50;5088858;28;20069;-72
2024/03/24 08:41:14;;;;;;;14.98;3.20;;;;;;;-146.27;74.03;45528.53;5086680;28;20028;-71
2024/03/24 08:43:40;;;;;;;15.82;3.42;;;;;;;-146.27;75.05;45504.66;5091342;28;20019;-71
2024/03/24 08:46:05;;;;;;;11.30;2.80;;;;;;;-146.27;76.81;45452.91;5098411;28;20020;-70
2024/03/24 08:48:31;;;;;;;9.05;1.50;;;;;;;-146.27;80.59;45413.09;5100927;28;20027;-71
2024/03/24 08:50:56;;;;;;;2.30;1.08;;;;;;;-146.27;82.15;45417.09;5092472;28;20088;-71
2024/03/24 08:53:21;;;;;;;5.35;1.13;;;;;;;-146.27;84.01;45393.22;5074912;28;20115;-70
2024/03/24 08:55:47;;;;;;;2.72;1.00;;;;;;;-146.27;85.97;45379.28;5085724;28;20031;-70
2024/03/24 08:58:15;;;;;;;6.72;1.15;;;;;;;-146.27;87.48;45389.22;5091251;28;20036;-70
2024/03/24 09:00:40;;;;;;;4.50;0.60;;;;;;;-146.27;88.79;45275.78;5090746;28;20039;-73
2024/03/24 09:03:05;;;;;;;6.55;0.80;;;;;;;-146.27;89.64;45230.00;5090011;28;20400;-74
2024/03/24 09:05:32;;;;;;;4.85;0.80;;;;;;;-146.27;89.98;45150.41;5083799;28;20110;-74
2024/03/24 09:07:57;;;;;;;4.00;0.77;;;;;;;-146.27;90.09;45162.34;5093099;28;20042;-74
2024/03/24 09:10:23;;;;;;;7.65;1.30;;;;;;;-146.27;90.18;45084.72;5084333;28;20059;-73
2024/03/24 09:12:48;;;;;;;14.00;1.77;;;;;;;-146.27;90.09;45094.69;5088479;28;20032;-73
2024/03/24 09:15:14;;;;;;;13.88;2.28;;;;;;;-146.27;90.35;45058.88;5089892;28;20089;-74
2024/03/24 09:17:39;;;;;;;18.88;3.40;;;;;;;-146.27;89.51;45007.13;5089864;28;20069;-73
2024/03/24 09:20:05;;;;;;;16.40;2.78;;;;;;;-146.27;89.01;44991.19;5088582;28;20107;-73
2024/03/24 09:22:30;;;;;;;12.80;2.33;;;;;;;-146.27;88.46;44945.44;5086920;28;20624;-73
2024/03/24 09:24:56;;;;;;;11.63;3.17;;;;;;;-146.27;87.58;44919.56;5089894;28;20156;-73
2024/03/24 09:27:21;;;;;;;16.33;2.38;;;;;;;-146.27;87.00;44983.25;5086149;28;20071;-74
2024/03/24 09:29:46;;;;;;;18.73;2.90;;;;;;;-146.27;86.38;44981.25;5095360;28;20066;-73
2024/03/24 09:32:12;;;;;;;15.02;2.72;;;;;;;-146.27;86.10;44965.34;5091913;28;20023;-73
2024/03/24 09:34:37;;;;;;;10.95;2.83;;;;;;;-146.27;84.76;45015.09;5089729;28;20024;-73
2024/03/24 09:37:05;;;;;;;13.88;3.13;;;;;;;-146.27;83.73;45007.13;5086372;28;20559;-73
2024/03/24 09:39:30;;;;;;;22.52;2.13;;;;;;;-146.27;82.63;45134.50;5092198;28;20024;-74
2024/03/24 09:41:58;;;;;;;13.48;2.17;;;;;;;-146.27;82.79;45194.19;5087887;28;20035;-73
2024/03/24 09:44:25;;;;;;;11.40;1.92;;;;;;;-146.27;82.28;45198.16;5084472;28;20036;-72
2024/03/24 09:46:51;;;;;;;9.73;2.05;;;;;;;-146.27;81.31;45202.16;5090516;28;20032;-72
2024/03/24 09:49:17;;;;;;;21.10;2.63;;;;;;;-146.27;81.46;45214.09;5091649;28;20046;-72
2024/03/24 09:51:44;;;;;;;13.20;2.45;;;;;;;-146.27;81.17;45206.13;5091719;28;20024;-72
2024/03/24 09:54:14;;;;;;;12.80;3.88;;;;;;;-146.27;81.08;45178.28;5085124;28;20024;-73
2024/03/24 09:56:40;;;;;;;14.68;2.47;;;;;;;-146.27;81.35;45162.34;5080801;28;20054;-72
2024/03/24 09:59:07;;;;;;;19.35;2.85;;;;;;;-146.27;81.17;45204.13;5090448;28;20032;-73
2024/03/24 10:01:38;;;;;;;16.45;2.97;;;;;;;-146.27;81.06;45162.34;5092169;28;20051;-73
2024/03/24 10:04:05;;;;;;;13.32;3.15;;;;;;;-146.27;82.03;45144.44;5100788;28;20125;-73
2024/03/24 10:06:31;;;;;;;18.67;3.03;;;;;;;-146.27;81.97;45102.66;5086594;28;20024;-73
2024/03/24 10:08:57;;;;;;;24.77;3.10;;;;;;;-146.27;82.49;45098.66;5090457;28;20024;-74
2024/03/24 10:11:26;;;;;;;18.55;2.92;;;;;;;-146.27;81.87;45078.75;5098004;28;20088;-73
2024/03/24 10:13:52;;;;;;;11.00;2.13;;;;;;;-146.27;81.38;45096.69;5099565;28;20024;-73
2024/03/24 10:16:18;;;;;;;14.02;2.50;;;;;;;-146.27;80.60;45214.09;5112535;28;20051;-74
2024/03/24 10:18:43;;;;;;;17.65;2.83;;;;;;;-146.27;80.20;45186.22;5094000;28;20063;-74
2024/03/24 10:21:10;;;;;;;15.13;2.58;;;;;;;-146.27;78.98;45287.72;5091853;28;20032;-74
2024/03/24 10:23:36;;;;;;;17.95;2.25;;;;;;;-146.27;77.64;45261.84;5089483;28;20397;-75
2024/03/24 10:26:02;;;;;;;17.17;2.55;;;;;;;-146.27;79.49;45212.09;5080640;28;20496;-73
2024/03/24 10:28:28;;;;;;;12.45;2.33;;;;;;;-146.27;83.55;45228.03;5094702;28;20080;-72
2024/03/24 10:31:04;;;;;;;12.68;2.13;;;;;;;-146.27;84.46;45234.00;5087069;28;20041;-74
2024/03/24 10:33:31;;;;;;;6.43;1.73;;;;;;;-146.27;84.42;45253.91;5087099;28;20420;-74
2024/03/24 10:35:57;;;;;;;15.00;2.17;;;;;;;-146.27;84.48;45190.22;5096907;28;20106;-74
2024/03/24 10:38:23;;;;;;;15.00;3.05;;;;;;;-146.27;84.80;45194.19;5091213;28;20059;-74
2024/03/24 10:40:54;;;;;;;23.73;3.38;;;;;;;-146.27;84.87;45154.38;5090068;28;20016;-75
2024/03/24 10:43:20;;;;;;;16.48;2.58;;;;;;;-146.27;83.83;45080.75;5090925;28;20089;-74
2024/03/24 10:45:45;;;;;;;14.77;3.47;;;;;;;-146.27;82.44;45158.38;5097928;28;20605;-74
2024/03/24 10:48:14;;;;;;;21.80;3.08;;;;;;;-146.27;81.71;45166.31;5098357;28;20081;-74
2024/03/24 10:50:40;;;;;;;11.23;2.00;;;;;;;-146.27;79.64;45136.47;5098688;28;20418;-74
2024/03/24 10:53:13;;;;;;;13.10;2.42;;;;;;;-146.27;78.92;45174.28;5094063;28;20024;-74
2024/03/24 10:55:41;;;;;;;35.38;3.17;;;;;;;-146.27;79.47;45206.13;5103623;28;20028;-74
2024/03/24 10:58:08;;;;;;;17.38;2.63;;;;;;;-146.27;79.47;45257.88;5087082;28;20028;-73
2024/03/24 11:00:34;;;;;;;22.83;4.07;;;;;;;-146.27;79.63;45327.53;5090420;28;21118;-73
2024/03/24 11:03:00;;;;;;;15.68;3.05;;;;;;;-146.27;78.95;45194.19;5089858;28;20065;-75
2024/03/24 11:05:26;;;;;;;11.20;2.42;;;;;;;-146.27;77.79;45228.03;5092714;28;20020;-73
2024/03/24 11:07:53;;;;;;;9.90;2.30;;;;;;;-146.27;78.68;45259.88;5085897;28;20043;-73